sensor_id;sensor_type;location;lat;lon;timestamp;P1;durP1;ratioP1;P2;durP2;ratioP2
4555;SDS011;2290;48.674;9.018;2023-04-25T00:01:59;3.00;;;1.90;;
4555;SDS011;2290;48.674;9.018;2023-04-25T00:04:25;2.83;;;2.10;;
4555;SDS011;2290;48.674;9.018;2023-04-25T00:06:54;2.10;;;1.87;;
4555;SDS011;2290;48.674;9.018;2023-04-25T00:09:20;3.83;;;2.87;;
4555;SDS011;2290;48.674;9.018;2023-04-25T00:11:46;2.37;;;2.07;;
4555;SDS011;2290;48.674;9.018;2023-04-25T00:14:12;2.30;;;2.10;;
4555;SDS011;2290;48.674;9.018;2023-04-25T00:16:38;3.63;;;2.13;;
4555;SDS011;2290;48.674;9.018;2023-04-25T00:19:04;3.10;;;2.20;;
4555;SDS011;2290;48.674;9.018;2023-04-25T00:21:30;2.47;;;2.27;;
4555;SDS011;2290;48.674;9.018;2023-04-25T00:23:56;2.90;;;2.00;;
4555;SDS011;2290;48.674;9.018;2023-04-25T00:26:22;3.73;;;2.67;;
4555;SDS011;2290;48.674;9.018;2023-04-25T00:28:47;4.37;;;2.60;;
4555;SDS011;2290;48.674;9.018;2023-04-25T00:31:13;2.13;;;1.93;;
4555;SDS011;2290;48.674;9.018;2023-04-25T00:33:39;2.90;;;2.10;;
4555;SDS011;2290;48.674;9.018;2023-04-25T00:36:05;4.50;;;2.20;;
4555;SDS011;2290;48.674;9.018;2023-04-25T00:38:32;2.60;;;2.13;;
4555;SDS011;2290;48.674;9.018;2023-04-25T00:41:01;2.87;;;1.70;;
4555;SDS011;2290;48.674;9.018;2023-04-25T00:43:28;3.40;;;2.00;;
4555;SDS011;2290;48.674;9.018;2023-04-25T00:45:59;2.10;;;1.90;;
4555;SDS011;2290;48.674;9.018;2023-04-25T00:48:26;2.90;;;2.03;;
4555;SDS011;2290;48.674;9.018;2023-04-25T00:50:53;2.80;;;2.20;;
4555;SDS011;2290;48.674;9.018;2023-04-25T00:53:26;4.00;;;2.30;;
4555;SDS011;2290;48.674;9.018;2023-04-25T00:55:52;2.23;;;1.90;;
4555;SDS011;2290;48.674;9.018;2023-04-25T00:58:20;4.37;;;2.37;;
4555;SDS011;2290;48.674;9.018;2023-04-25T01:00:48;2.00;;;1.80;;
4555;SDS011;2290;48.674;9.018;2023-04-25T01:03:17;5.27;;;2.30;;
4555;SDS011;2290;48.674;9.018;2023-04-25T01:05:45;5.27;;;2.40;;
4555;SDS011;2290;48.674;9.018;2023-04-25T01:08:13;3.40;;;2.10;;
4555;SDS011;2290;48.674;9.018;2023-04-25T01:10:41;6.20;;;2.30;;
4555;SDS011;2290;48.674;9.018;2023-04-25T01:13:06;3.00;;;2.27;;
4555;SDS011;2290;48.674;9.018;2023-04-25T01:15:32;3.90;;;2.00;;
4555;SDS011;2290;48.674;9.018;2023-04-25T01:17:57;4.20;;;2.53;;
4555;SDS011;2290;48.674;9.018;2023-04-25T01:20:26;2.60;;;1.97;;
4555;SDS011;2290;48.674;9.018;2023-04-25T01:22:53;3.23;;;2.93;;
4555;SDS011;2290;48.674;9.018;2023-04-25T01:25:20;3.90;;;1.97;;
4555;SDS011;2290;48.674;9.018;2023-04-25T01:27:46;2.13;;;1.70;;
4555;SDS011;2290;48.674;9.018;2023-04-25T01:30:12;3.40;;;1.80;;
4555;SDS011;2290;48.674;9.018;2023-04-25T01:32:39;2.50;;;1.73;;
4555;SDS011;2290;48.674;9.018;2023-04-25T01:35:08;2.17;;;1.70;;
4555;SDS011;2290;48.674;9.018;2023-04-25T01:37:38;3.10;;;2.07;;
4555;SDS011;2290;48.674;9.018;2023-04-25T01:40:09;2.27;;;1.90;;
4555;SDS011;2290;48.674;9.018;2023-04-25T01:42:37;2.90;;;1.93;;
4555;SDS011;2290;48.674;9.018;2023-04-25T01:45:05;2.50;;;1.60;;
4555;SDS011;2290;48.674;9.018;2023-04-25T01:47:31;3.40;;;1.73;;
4555;SDS011;2290;48.674;9.018;2023-04-25T01:49:57;2.20;;;2.00;;
4555;SDS011;2290;48.674;9.018;2023-04-25T01:52:23;2.87;;;1.90;;
4555;SDS011;2290;48.674;9.018;2023-04-25T01:54:48;3.70;;;1.97;;
4555;SDS011;2290;48.674;9.018;2023-04-25T01:57:17;3.80;;;2.17;;
4555;SDS011;2290;48.674;9.018;2023-04-25T01:59:43;2.50;;;1.73;;
4555;SDS011;2290;48.674;9.018;2023-04-25T02:02:09;3.00;;;1.77;;
4555;SDS011;2290;48.674;9.018;2023-04-25T02:04:36;3.27;;;1.87;;
4555;SDS011;2290;48.674;9.018;2023-04-25T02:07:01;2.10;;;1.90;;
4555;SDS011;2290;48.674;9.018;2023-04-25T02:09:29;3.13;;;1.97;;
4555;SDS011;2290;48.674;9.018;2023-04-25T02:11:55;2.40;;;2.20;;
4555;SDS011;2290;48.674;9.018;2023-04-25T02:14:23;1.90;;;1.67;;
4555;SDS011;2290;48.674;9.018;2023-04-25T02:16:48;3.70;;;2.07;;
4555;SDS011;2290;48.674;9.018;2023-04-25T02:19:16;2.87;;;1.70;;
4555;SDS011;2290;48.674;9.018;2023-04-25T02:21:41;2.13;;;1.80;;
4555;SDS011;2290;48.674;9.018;2023-04-25T02:24:07;1.87;;;1.67;;
4555;SDS011;2290;48.674;9.018;2023-04-25T02:26:33;3.40;;;2.17;;
4555;SDS011;2290;48.674;9.018;2023-04-25T02:28:58;2.33;;;2.00;;
4555;SDS011;2290;48.674;9.018;2023-04-25T02:31:25;2.10;;;1.73;;
4555;SDS011;2290;48.674;9.018;2023-04-25T02:33:51;3.20;;;2.10;;
4555;SDS011;2290;48.674;9.018;2023-04-25T02:36:17;2.73;;;1.90;;
4555;SDS011;2290;48.674;9.018;2023-04-25T02:38:44;4.07;;;2.40;;
4555;SDS011;2290;48.674;9.018;2023-04-25T02:41:09;4.20;;;2.07;;
4555;SDS011;2290;48.674;9.018;2023-04-25T02:43:35;4.00;;;1.80;;
4555;SDS011;2290;48.674;9.018;2023-04-25T02:46:01;2.97;;;2.10;;
4555;SDS011;2290;48.674;9.018;2023-04-25T02:48:28;2.67;;;1.87;;
4555;SDS011;2290;48.674;9.018;2023-04-25T02:50:54;2.90;;;2.30;;
4555;SDS011;2290;48.674;9.018;2023-04-25T02:53:19;6.50;;;2.10;;
4555;SDS011;2290;48.674;9.018;2023-04-25T02:55:46;4.13;;;2.20;;
4555;SDS011;2290;48.674;9.018;2023-04-25T02:58:12;2.47;;;2.13;;
4555;SDS011;2290;48.674;9.018;2023-04-25T03:00:38;2.80;;;1.77;;
4555;SDS011;2290;48.674;9.018;2023-04-25T03:03:05;2.80;;;1.77;;
4555;SDS011;2290;48.674;9.018;2023-04-25T03:05:31;3.80;;;2.93;;
4555;SDS011;2290;48.674;9.018;2023-04-25T03:07:56;2.50;;;1.90;;
4555;SDS011;2290;48.674;9.018;2023-04-25T03:10:22;5.30;;;1.90;;
4555;SDS011;2290;48.674;9.018;2023-04-25T03:12:47;3.43;;;2.20;;
4555;SDS011;2290;48.674;9.018;2023-04-25T03:15:14;2.23;;;2.00;;
4555;SDS011;2290;48.674;9.018;2023-04-25T03:17:41;3.83;;;2.10;;
4555;SDS011;2290;48.674;9.018;2023-04-25T03:20:08;2.30;;;2.10;;
4555;SDS011;2290;48.674;9.018;2023-04-25T03:22:35;5.80;;;2.63;;
4555;SDS011;2290;48.674;9.018;2023-04-25T03:25:00;2.30;;;1.90;;
4555;SDS011;2290;48.674;9.018;2023-04-25T03:27:26;5.43;;;2.40;;
4555;SDS011;2290;48.674;9.018;2023-04-25T03:29:54;3.10;;;2.50;;
4555;SDS011;2290;48.674;9.018;2023-04-25T03:32:20;3.90;;;2.50;;
4555;SDS011;2290;48.674;9.018;2023-04-25T03:34:45;15.07;;;2.73;;
4555;SDS011;2290;48.674;9.018;2023-04-25T03:37:11;3.93;;;2.13;;
4555;SDS011;2290;48.674;9.018;2023-04-25T03:39:36;4.20;;;2.67;;
4555;SDS011;2290;48.674;9.018;2023-04-25T03:42:03;2.70;;;1.87;;
4555;SDS011;2290;48.674;9.018;2023-04-25T03:44:29;3.40;;;2.33;;
4555;SDS011;2290;48.674;9.018;2023-04-25T03:46:54;4.10;;;2.43;;
4555;SDS011;2290;48.674;9.018;2023-04-25T03:49:20;2.53;;;2.10;;
4555;SDS011;2290;48.674;9.018;2023-04-25T03:51:45;3.00;;;2.17;;
4555;SDS011;2290;48.674;9.018;2023-04-25T03:54:12;3.00;;;2.33;;
4555;SDS011;2290;48.674;9.018;2023-04-25T03:56:38;4.47;;;2.10;;
4555;SDS011;2290;48.674;9.018;2023-04-25T03:59:06;3.23;;;1.97;;
4555;SDS011;2290;48.674;9.018;2023-04-25T04:01:32;2.73;;;2.47;;
4555;SDS011;2290;48.674;9.018;2023-04-25T04:03:59;2.77;;;1.97;;
4555;SDS011;2290;48.674;9.018;2023-04-25T04:06:25;2.83;;;2.10;;
4555;SDS011;2290;48.674;9.018;2023-04-25T04:08:50;3.17;;;2.10;;
4555;SDS011;2290;48.674;9.018;2023-04-25T04:11:16;5.00;;;2.53;;
4555;SDS011;2290;48.674;9.018;2023-04-25T04:13:41;2.63;;;2.17;;
4555;SDS011;2290;48.674;9.018;2023-04-25T04:16:07;3.33;;;2.63;;
4555;SDS011;2290;48.674;9.018;2023-04-25T04:18:32;4.30;;;2.50;;
4555;SDS011;2290;48.674;9.018;2023-04-25T04:20:58;2.63;;;2.43;;
4555;SDS011;2290;48.674;9.018;2023-04-25T04:23:24;3.57;;;2.33;;
4555;SDS011;2290;48.674;9.018;2023-04-25T04:25:52;3.50;;;2.63;;
4555;SDS011;2290;48.674;9.018;2023-04-25T04:28:19;4.23;;;3.83;;
4555;SDS011;2290;48.674;9.018;2023-04-25T04:30:47;3.50;;;2.23;;
4555;SDS011;2290;48.674;9.018;2023-04-25T04:33:13;2.43;;;2.23;;
4555;SDS011;2290;48.674;9.018;2023-04-25T04:35:40;3.60;;;2.20;;
4555;SDS011;2290;48.674;9.018;2023-04-25T04:38:06;4.57;;;2.40;;
4555;SDS011;2290;48.674;9.018;2023-04-25T04:40:32;5.27;;;2.40;;
4555;SDS011;2290;48.674;9.018;2023-04-25T04:42:58;3.53;;;2.30;;
4555;SDS011;2290;48.674;9.018;2023-04-25T04:45:24;4.00;;;2.40;;
4555;SDS011;2290;48.674;9.018;2023-04-25T04:47:50;2.50;;;2.00;;
4555;SDS011;2290;48.674;9.018;2023-04-25T04:50:16;4.20;;;2.13;;
4555;SDS011;2290;48.674;9.018;2023-04-25T04:52:41;2.50;;;2.30;;
4555;SDS011;2290;48.674;9.018;2023-04-25T04:55:07;4.30;;;2.67;;
4555;SDS011;2290;48.674;9.018;2023-04-25T04:57:34;2.30;;;2.10;;
4555;SDS011;2290;48.674;9.018;2023-04-25T05:00:00;2.90;;;2.57;;
4555;SDS011;2290;48.674;9.018;2023-04-25T05:02:26;2.70;;;2.00;;
4555;SDS011;2290;48.674;9.018;2023-04-25T05:04:52;3.93;;;2.47;;
4555;SDS011;2290;48.674;9.018;2023-04-25T05:07:18;4.57;;;2.80;;
4555;SDS011;2290;48.674;9.018;2023-04-25T05:09:43;3.03;;;2.33;;
4555;SDS011;2290;48.674;9.018;2023-04-25T05:12:09;3.17;;;2.40;;
4555;SDS011;2290;48.674;9.018;2023-04-25T05:14:35;3.20;;;2.10;;
4555;SDS011;2290;48.674;9.018;2023-04-25T05:17:01;3.33;;;2.30;;
4555;SDS011;2290;48.674;9.018;2023-04-25T05:19:29;3.90;;;2.60;;
4555;SDS011;2290;48.674;9.018;2023-04-25T05:21:56;2.93;;;2.43;;
4555;SDS011;2290;48.674;9.018;2023-04-25T05:24:21;2.70;;;2.33;;
4555;SDS011;2290;48.674;9.018;2023-04-25T05:26:47;3.37;;;2.90;;
4555;SDS011;2290;48.674;9.018;2023-04-25T05:29:13;5.70;;;3.87;;
4555;SDS011;2290;48.674;9.018;2023-04-25T05:31:39;4.07;;;3.37;;
4555;SDS011;2290;48.674;9.018;2023-04-25T05:34:04;10.70;;;3.10;;
4555;SDS011;2290;48.674;9.018;2023-04-25T05:36:30;4.10;;;2.83;;
4555;SDS011;2290;48.674;9.018;2023-04-25T05:38:57;3.40;;;2.60;;
4555;SDS011;2290;48.674;9.018;2023-04-25T05:41:23;4.97;;;2.77;;
4555;SDS011;2290;48.674;9.018;2023-04-25T05:43:48;3.40;;;2.47;;
4555;SDS011;2290;48.674;9.018;2023-04-25T05:46:14;6.43;;;3.03;;
4555;SDS011;2290;48.674;9.018;2023-04-25T05:48:43;4.70;;;3.10;;
4555;SDS011;2290;48.674;9.018;2023-04-25T05:51:09;3.67;;;2.90;;
4555;SDS011;2290;48.674;9.018;2023-04-25T05:53:34;4.07;;;2.63;;
4555;SDS011;2290;48.674;9.018;2023-04-25T05:56:00;4.73;;;2.63;;
4555;SDS011;2290;48.674;9.018;2023-04-25T05:58:26;4.90;;;2.83;;
4555;SDS011;2290;48.674;9.018;2023-04-25T06:00:51;9.10;;;3.30;;
4555;SDS011;2290;48.674;9.018;2023-04-25T06:03:17;9.40;;;3.40;;
4555;SDS011;2290;48.674;9.018;2023-04-25T06:05:43;3.70;;;2.87;;
4555;SDS011;2290;48.674;9.018;2023-04-25T06:08:09;5.47;;;3.00;;
4555;SDS011;2290;48.674;9.018;2023-04-25T06:10:38;6.43;;;2.83;;
4555;SDS011;2290;48.674;9.018;2023-04-25T06:13:04;3.43;;;2.53;;
4555;SDS011;2290;48.674;9.018;2023-04-25T06:15:30;2.73;;;2.53;;
4555;SDS011;2290;48.674;9.018;2023-04-25T06:17:58;5.13;;;3.03;;
4555;SDS011;2290;48.674;9.018;2023-04-25T06:20:24;3.57;;;2.80;;
4555;SDS011;2290;48.674;9.018;2023-04-25T06:22:50;5.57;;;3.10;;
4555;SDS011;2290;48.674;9.018;2023-04-25T06:25:18;4.70;;;3.17;;
4555;SDS011;2290;48.674;9.018;2023-04-25T06:27:44;3.00;;;2.60;;
4555;SDS011;2290;48.674;9.018;2023-04-25T06:30:12;3.80;;;2.93;;
4555;SDS011;2290;48.674;9.018;2023-04-25T06:32:38;3.67;;;3.07;;
4555;SDS011;2290;48.674;9.018;2023-04-25T06:35:04;4.30;;;3.03;;
4555;SDS011;2290;48.674;9.018;2023-04-25T06:37:30;5.83;;;2.97;;
4555;SDS011;2290;48.674;9.018;2023-04-25T06:39:56;4.90;;;3.23;;
4555;SDS011;2290;48.674;9.018;2023-04-25T06:42:21;3.80;;;2.93;;
4555;SDS011;2290;48.674;9.018;2023-04-25T06:44:47;4.37;;;2.87;;
4555;SDS011;2290;48.674;9.018;2023-04-25T06:47:13;4.53;;;3.13;;
4555;SDS011;2290;48.674;9.018;2023-04-25T06:49:40;3.60;;;2.70;;
4555;SDS011;2290;48.674;9.018;2023-04-25T06:52:05;11.90;;;3.00;;
4555;SDS011;2290;48.674;9.018;2023-04-25T06:54:32;3.10;;;2.60;;
4555;SDS011;2290;48.674;9.018;2023-04-25T06:56:57;3.30;;;2.80;;
4555;SDS011;2290;48.674;9.018;2023-04-25T06:59:23;4.43;;;2.60;;
4555;SDS011;2290;48.674;9.018;2023-04-25T07:01:50;3.00;;;2.70;;
4555;SDS011;2290;48.674;9.018;2023-04-25T07:04:16;5.70;;;3.13;;
4555;SDS011;2290;48.674;9.018;2023-04-25T07:06:41;6.23;;;2.80;;
4555;SDS011;2290;48.674;9.018;2023-04-25T07:09:08;3.27;;;2.80;;
4555;SDS011;2290;48.674;9.018;2023-04-25T07:11:35;9.90;;;3.83;;
4555;SDS011;2290;48.674;9.018;2023-04-25T07:14:00;3.70;;;2.83;;
4555;SDS011;2290;48.674;9.018;2023-04-25T07:16:28;4.70;;;2.77;;
4555;SDS011;2290;48.674;9.018;2023-04-25T07:18:53;4.27;;;2.80;;
4555;SDS011;2290;48.674;9.018;2023-04-25T07:21:19;3.80;;;3.13;;
4555;SDS011;2290;48.674;9.018;2023-04-25T07:23:44;6.17;;;3.17;;
4555;SDS011;2290;48.674;9.018;2023-04-25T07:26:10;3.70;;;2.70;;
4555;SDS011;2290;48.674;9.018;2023-04-25T07:28:36;12.60;;;3.07;;
4555;SDS011;2290;48.674;9.018;2023-04-25T07:31:01;8.17;;;2.90;;
4555;SDS011;2290;48.674;9.018;2023-04-25T07:33:27;4.10;;;2.87;;
4555;SDS011;2290;48.674;9.018;2023-04-25T07:35:54;4.70;;;2.43;;
4555;SDS011;2290;48.674;9.018;2023-04-25T07:38:20;4.93;;;3.20;;
4555;SDS011;2290;48.674;9.018;2023-04-25T07:40:47;4.90;;;3.43;;
4555;SDS011;2290;48.674;9.018;2023-04-25T07:43:14;3.90;;;3.13;;
4555;SDS011;2290;48.674;9.018;2023-04-25T07:45:42;3.70;;;3.00;;
4555;SDS011;2290;48.674;9.018;2023-04-25T07:48:11;3.27;;;2.63;;
4555;SDS011;2290;48.674;9.018;2023-04-25T07:50:41;3.03;;;2.70;;
4555;SDS011;2290;48.674;9.018;2023-04-25T07:53:06;3.57;;;2.63;;
4555;SDS011;2290;48.674;9.018;2023-04-25T07:55:32;4.37;;;2.73;;
4555;SDS011;2290;48.674;9.018;2023-04-25T07:57:57;3.17;;;2.40;;
4555;SDS011;2290;48.674;9.018;2023-04-25T08:00:23;3.87;;;2.80;;
4555;SDS011;2290;48.674;9.018;2023-04-25T08:02:48;4.10;;;3.03;;
4555;SDS011;2290;48.674;9.018;2023-04-25T08:05:15;3.47;;;2.80;;
4555;SDS011;2290;48.674;9.018;2023-04-25T08:07:41;3.87;;;2.70;;
4555;SDS011;2290;48.674;9.018;2023-04-25T08:10:07;3.27;;;2.53;;
4555;SDS011;2290;48.674;9.018;2023-04-25T08:12:33;3.70;;;3.00;;
4555;SDS011;2290;48.674;9.018;2023-04-25T08:14:59;4.10;;;2.90;;
4555;SDS011;2290;48.674;9.018;2023-04-25T08:17:24;3.57;;;2.57;;
4555;SDS011;2290;48.674;9.018;2023-04-25T08:19:51;4.10;;;2.80;;
4555;SDS011;2290;48.674;9.018;2023-04-25T08:22:17;3.80;;;2.60;;
4555;SDS011;2290;48.674;9.018;2023-04-25T08:24:42;4.73;;;3.20;;
4555;SDS011;2290;48.674;9.018;2023-04-25T08:27:09;2.90;;;2.40;;
4555;SDS011;2290;48.674;9.018;2023-04-25T08:29:36;3.07;;;2.37;;
4555;SDS011;2290;48.674;9.018;2023-04-25T08:32:01;4.90;;;3.10;;
4555;SDS011;2290;48.674;9.018;2023-04-25T08:34:27;3.70;;;3.00;;
4555;SDS011;2290;48.674;9.018;2023-04-25T08:36:52;4.43;;;3.27;;
4555;SDS011;2290;48.674;9.018;2023-04-25T08:39:18;7.13;;;3.87;;
4555;SDS011;2290;48.674;9.018;2023-04-25T08:41:44;3.40;;;2.63;;
4555;SDS011;2290;48.674;9.018;2023-04-25T08:44:11;6.10;;;3.13;;
4555;SDS011;2290;48.674;9.018;2023-04-25T08:46:40;4.23;;;3.07;;
4555;SDS011;2290;48.674;9.018;2023-04-25T08:49:06;4.70;;;3.27;;
4555;SDS011;2290;48.674;9.018;2023-04-25T08:51:38;4.70;;;2.70;;
4555;SDS011;2290;48.674;9.018;2023-04-25T08:54:13;4.13;;;2.83;;
4555;SDS011;2290;48.674;9.018;2023-04-25T08:56:48;3.13;;;2.50;;
4555;SDS011;2290;48.674;9.018;2023-04-25T08:59:15;4.70;;;3.00;;
4555;SDS011;2290;48.674;9.018;2023-04-25T09:01:42;3.60;;;2.67;;
4555;SDS011;2290;48.674;9.018;2023-04-25T09:04:08;4.27;;;2.97;;
4555;SDS011;2290;48.674;9.018;2023-04-25T09:06:33;2.63;;;2.37;;
4555;SDS011;2290;48.674;9.018;2023-04-25T09:09:04;3.60;;;2.50;;
4555;SDS011;2290;48.674;9.018;2023-04-25T09:11:31;3.50;;;2.90;;
4555;SDS011;2290;48.674;9.018;2023-04-25T09:19:25;3.30;;;2.60;;
4555;SDS011;2290;48.674;9.018;2023-04-25T09:21:53;3.77;;;2.67;;
4555;SDS011;2290;48.674;9.018;2023-04-25T09:27:08;3.00;;;2.37;;
4555;SDS011;2290;48.674;9.018;2023-04-25T09:29:36;4.83;;;2.10;;
4555;SDS011;2290;48.674;9.018;2023-04-25T09:34:40;3.70;;;2.30;;
4555;SDS011;2290;48.674;9.018;2023-04-25T09:37:13;3.10;;;2.10;;
4555;SDS011;2290;48.674;9.018;2023-04-25T09:40:04;3.50;;;2.00;;
4555;SDS011;2290;48.674;9.018;2023-04-25T09:42:33;2.77;;;1.87;;
4555;SDS011;2290;48.674;9.018;2023-04-25T09:45:00;2.77;;;1.70;;
4555;SDS011;2290;48.674;9.018;2023-04-25T09:47:27;2.57;;;2.00;;
4555;SDS011;2290;48.674;9.018;2023-04-25T09:49:53;3.20;;;1.73;;
4555;SDS011;2290;48.674;9.018;2023-04-25T09:52:20;2.07;;;1.77;;
4555;SDS011;2290;48.674;9.018;2023-04-25T09:54:49;1.90;;;1.40;;
4555;SDS011;2290;48.674;9.018;2023-04-25T09:57:17;3.00;;;1.40;;
4555;SDS011;2290;48.674;9.018;2023-04-25T09:59:47;1.57;;;1.20;;
4555;SDS011;2290;48.674;9.018;2023-04-25T10:02:23;2.00;;;1.07;;
4555;SDS011;2290;48.674;9.018;2023-04-25T10:04:52;1.40;;;1.00;;
4555;SDS011;2290;48.674;9.018;2023-04-25T10:07:23;1.07;;;0.90;;
4555;SDS011;2290;48.674;9.018;2023-04-25T10:09:54;1.43;;;0.90;;
4555;SDS011;2290;48.674;9.018;2023-04-25T10:12:27;1.13;;;0.90;;
4555;SDS011;2290;48.674;9.018;2023-04-25T10:14:56;1.83;;;1.00;;
4555;SDS011;2290;48.674;9.018;2023-04-25T10:17:23;1.20;;;1.00;;
4555;SDS011;2290;48.674;9.018;2023-04-25T10:19:49;1.10;;;0.97;;
4555;SDS011;2290;48.674;9.018;2023-04-25T10:25:01;1.20;;;1.00;;
4555;SDS011;2290;48.674;9.018;2023-04-25T10:27:29;4.53;;;1.10;;
4555;SDS011;2290;48.674;9.018;2023-04-25T10:30:06;1.00;;;0.90;;
4555;SDS011;2290;48.674;9.018;2023-04-25T10:32:36;1.77;;;1.10;;
4555;SDS011;2290;48.674;9.018;2023-04-25T10:35:11;1.30;;;0.93;;
4555;SDS011;2290;48.674;9.018;2023-04-25T10:38:00;1.63;;;1.13;;
4555;SDS011;2290;48.674;9.018;2023-04-25T10:40:41;1.30;;;1.00;;
4555;SDS011;2290;48.674;9.018;2023-04-25T10:46:00;1.20;;;1.10;;
4555;SDS011;2290;48.674;9.018;2023-04-25T10:48:26;1.03;;;0.90;;
4555;SDS011;2290;48.674;9.018;2023-04-25T10:51:11;0.90;;;0.80;;
4555;SDS011;2290;48.674;9.018;2023-04-25T10:53:43;1.63;;;1.00;;
4555;SDS011;2290;48.674;9.018;2023-04-25T10:56:20;1.10;;;1.00;;
4555;SDS011;2290;48.674;9.018;2023-04-25T10:59:17;1.10;;;1.00;;
4555;SDS011;2290;48.674;9.018;2023-04-25T11:01:45;0.90;;;0.73;;
4555;SDS011;2290;48.674;9.018;2023-04-25T11:06:50;1.00;;;0.90;;
4555;SDS011;2290;48.674;9.018;2023-04-25T11:09:19;1.00;;;0.90;;
4555;SDS011;2290;48.674;9.018;2023-04-25T11:11:56;0.90;;;0.80;;
4555;SDS011;2290;48.674;9.018;2023-04-25T11:14:23;1.10;;;0.80;;
4555;SDS011;2290;48.674;9.018;2023-04-25T11:16:52;1.10;;;0.80;;
4555;SDS011;2290;48.674;9.018;2023-04-25T11:19:23;0.93;;;0.83;;
4555;SDS011;2290;48.674;9.018;2023-04-25T11:21:55;0.90;;;0.80;;
4555;SDS011;2290;48.674;9.018;2023-04-25T11:24:30;1.27;;;0.80;;
4555;SDS011;2290;48.674;9.018;2023-04-25T11:27:00;1.60;;;0.90;;
4555;SDS011;2290;48.674;9.018;2023-04-25T11:29:30;3.10;;;1.00;;
4555;SDS011;2290;48.674;9.018;2023-04-25T11:31:57;1.40;;;0.90;;
4555;SDS011;2290;48.674;9.018;2023-04-25T11:34:23;1.13;;;1.03;;
4555;SDS011;2290;48.674;9.018;2023-04-25T11:36:51;1.57;;;1.40;;
4555;SDS011;2290;48.674;9.018;2023-04-25T11:39:18;2.90;;;1.60;;
4555;SDS011;2290;48.674;9.018;2023-04-25T11:41:44;1.53;;;1.30;;
4555;SDS011;2290;48.674;9.018;2023-04-25T11:44:10;1.87;;;1.40;;
4555;SDS011;2290;48.674;9.018;2023-04-25T11:46:35;2.30;;;1.70;;
4555;SDS011;2290;48.674;9.018;2023-04-25T11:49:01;3.73;;;1.90;;
4555;SDS011;2290;48.674;9.018;2023-04-25T11:51:30;1.90;;;1.50;;
4555;SDS011;2290;48.674;9.018;2023-04-25T11:54:02;2.17;;;1.87;;
4555;SDS011;2290;48.674;9.018;2023-04-25T11:56:28;2.67;;;2.07;;
4555;SDS011;2290;48.674;9.018;2023-04-25T11:58:54;2.80;;;2.13;;
4555;SDS011;2290;48.674;9.018;2023-04-25T12:04:09;3.07;;;2.10;;
4555;SDS011;2290;48.674;9.018;2023-04-25T12:06:41;2.30;;;1.63;;
4555;SDS011;2290;48.674;9.018;2023-04-25T12:09:08;1.73;;;1.57;;
4555;SDS011;2290;48.674;9.018;2023-04-25T12:11:43;2.50;;;1.87;;
4555;SDS011;2290;48.674;9.018;2023-04-25T12:14:11;2.80;;;1.90;;
4555;SDS011;2290;48.674;9.018;2023-04-25T12:16:41;2.30;;;1.97;;
4555;SDS011;2290;48.674;9.018;2023-04-25T12:19:15;2.27;;;2.03;;
4555;SDS011;2290;48.674;9.018;2023-04-25T12:21:42;2.17;;;1.67;;
4555;SDS011;2290;48.674;9.018;2023-04-25T12:27:02;2.57;;;2.10;;
4555;SDS011;2290;48.674;9.018;2023-04-25T12:29:33;2.30;;;2.10;;
4555;SDS011;2290;48.674;9.018;2023-04-25T12:32:00;3.00;;;2.10;;
4555;SDS011;2290;48.674;9.018;2023-04-25T12:34:26;3.73;;;2.30;;
4555;SDS011;2290;48.674;9.018;2023-04-25T12:36:52;4.17;;;2.70;;
4555;SDS011;2290;48.674;9.018;2023-04-25T12:39:23;5.17;;;2.80;;
4555;SDS011;2290;48.674;9.018;2023-04-25T12:42:09;3.70;;;2.57;;
4555;SDS011;2290;48.674;9.018;2023-04-25T12:44:37;3.57;;;2.60;;
4555;SDS011;2290;48.674;9.018;2023-04-25T12:47:03;2.87;;;2.57;;
4555;SDS011;2290;48.674;9.018;2023-04-25T12:49:30;4.53;;;2.90;;
4555;SDS011;2290;48.674;9.018;2023-04-25T12:51:55;4.03;;;2.97;;
4555;SDS011;2290;48.674;9.018;2023-04-25T12:54:21;4.57;;;2.50;;
4555;SDS011;2290;48.674;9.018;2023-04-25T12:56:46;3.43;;;2.70;;
4555;SDS011;2290;48.674;9.018;2023-04-25T12:59:15;3.17;;;2.57;;
4555;SDS011;2290;48.674;9.018;2023-04-25T13:01:40;4.23;;;2.80;;
4555;SDS011;2290;48.674;9.018;2023-04-25T13:04:07;4.40;;;2.87;;
4555;SDS011;2290;48.674;9.018;2023-04-25T13:06:33;5.10;;;2.60;;
4555;SDS011;2290;48.674;9.018;2023-04-25T13:08:58;4.10;;;2.93;;
4555;SDS011;2290;48.674;9.018;2023-04-25T13:11:24;5.03;;;3.40;;
4555;SDS011;2290;48.674;9.018;2023-04-25T13:13:50;6.20;;;3.10;;
4555;SDS011;2290;48.674;9.018;2023-04-25T13:16:15;4.30;;;3.47;;
4555;SDS011;2290;48.674;9.018;2023-04-25T13:18:41;5.40;;;3.90;;
4555;SDS011;2290;48.674;9.018;2023-04-25T13:21:08;5.13;;;3.40;;
4555;SDS011;2290;48.674;9.018;2023-04-25T13:23:36;7.20;;;4.27;;
4555;SDS011;2290;48.674;9.018;2023-04-25T13:26:02;7.30;;;3.60;;
4555;SDS011;2290;48.674;9.018;2023-04-25T13:28:31;5.30;;;4.03;;
4555;SDS011;2290;48.674;9.018;2023-04-25T13:30:56;7.40;;;3.27;;
4555;SDS011;2290;48.674;9.018;2023-04-25T13:33:22;8.10;;;3.80;;
4555;SDS011;2290;48.674;9.018;2023-04-25T13:35:49;5.50;;;3.83;;
4555;SDS011;2290;48.674;9.018;2023-04-25T13:38:23;4.70;;;3.57;;
4555;SDS011;2290;48.674;9.018;2023-04-25T13:40:49;7.90;;;3.97;;
4555;SDS011;2290;48.674;9.018;2023-04-25T13:43:17;6.50;;;4.40;;
4555;SDS011;2290;48.674;9.018;2023-04-25T13:45:46;5.03;;;3.87;;
4555;SDS011;2290;48.674;9.018;2023-04-25T13:48:12;5.60;;;3.80;;
4555;SDS011;2290;48.674;9.018;2023-04-25T13:50:38;6.43;;;3.93;;
4555;SDS011;2290;48.674;9.018;2023-04-25T13:53:04;8.10;;;4.00;;
4555;SDS011;2290;48.674;9.018;2023-04-25T13:55:29;6.40;;;4.03;;
4555;SDS011;2290;48.674;9.018;2023-04-25T13:57:55;6.13;;;3.80;;
4555;SDS011;2290;48.674;9.018;2023-04-25T14:00:20;5.60;;;3.77;;
4555;SDS011;2290;48.674;9.018;2023-04-25T14:02:46;5.53;;;3.37;;
4555;SDS011;2290;48.674;9.018;2023-04-25T14:05:12;4.47;;;3.30;;
4555;SDS011;2290;48.674;9.018;2023-04-25T14:07:38;6.47;;;3.90;;
4555;SDS011;2290;48.674;9.018;2023-04-25T14:10:04;6.27;;;4.53;;
4555;SDS011;2290;48.674;9.018;2023-04-25T14:12:32;7.67;;;4.70;;
4555;SDS011;2290;48.674;9.018;2023-04-25T14:14:59;7.30;;;4.07;;
4555;SDS011;2290;48.674;9.018;2023-04-25T14:17:25;5.90;;;4.07;;
4555;SDS011;2290;48.674;9.018;2023-04-25T14:19:51;8.10;;;4.20;;
4555;SDS011;2290;48.674;9.018;2023-04-25T14:22:17;5.20;;;3.63;;
4555;SDS011;2290;48.674;9.018;2023-04-25T14:24:42;8.93;;;4.50;;
4555;SDS011;2290;48.674;9.018;2023-04-25T14:27:08;5.53;;;3.93;;
4555;SDS011;2290;48.674;9.018;2023-04-25T14:29:34;4.93;;;3.67;;
4555;SDS011;2290;48.674;9.018;2023-04-25T14:32:00;7.30;;;3.70;;
4555;SDS011;2290;48.674;9.018;2023-04-25T14:34:25;9.50;;;4.23;;
4555;SDS011;2290;48.674;9.018;2023-04-25T14:36:51;5.60;;;3.20;;
4555;SDS011;2290;48.674;9.018;2023-04-25T14:39:18;3.90;;;3.00;;
4555;SDS011;2290;48.674;9.018;2023-04-25T14:41:44;5.40;;;3.50;;
4555;SDS011;2290;48.674;9.018;2023-04-25T14:44:10;5.63;;;3.10;;
4555;SDS011;2290;48.674;9.018;2023-04-25T14:46:36;6.60;;;4.00;;
4555;SDS011;2290;48.674;9.018;2023-04-25T14:49:03;4.40;;;3.47;;
4555;SDS011;2290;48.674;9.018;2023-04-25T14:51:29;6.07;;;3.20;;
4555;SDS011;2290;48.674;9.018;2023-04-25T14:53:55;6.33;;;3.37;;
4555;SDS011;2290;48.674;9.018;2023-04-25T14:56:21;3.27;;;2.57;;
4555;SDS011;2290;48.674;9.018;2023-04-25T14:58:47;3.20;;;2.80;;
4555;SDS011;2290;48.674;9.018;2023-04-25T15:01:14;6.63;;;3.07;;
4555;SDS011;2290;48.674;9.018;2023-04-25T15:03:40;3.40;;;2.33;;
4555;SDS011;2290;48.674;9.018;2023-04-25T15:06:06;2.57;;;2.23;;
4555;SDS011;2290;48.674;9.018;2023-04-25T15:08:33;3.30;;;2.63;;
4555;SDS011;2290;48.674;9.018;2023-04-25T15:10:58;4.90;;;2.77;;
4555;SDS011;2290;48.674;9.018;2023-04-25T15:13:24;3.23;;;2.53;;
4555;SDS011;2290;48.674;9.018;2023-04-25T15:15:52;3.80;;;2.27;;
4555;SDS011;2290;48.674;9.018;2023-04-25T15:18:20;3.20;;;2.17;;
4555;SDS011;2290;48.674;9.018;2023-04-25T15:20:50;2.47;;;2.10;;
4555;SDS011;2290;48.674;9.018;2023-04-25T15:23:17;3.30;;;2.10;;
4555;SDS011;2290;48.674;9.018;2023-04-25T15:25:45;4.50;;;2.03;;
4555;SDS011;2290;48.674;9.018;2023-04-25T15:28:11;2.10;;;1.90;;
4555;SDS011;2290;48.674;9.018;2023-04-25T15:30:38;2.73;;;1.80;;
4555;SDS011;2290;48.674;9.018;2023-04-25T15:33:04;3.37;;;2.07;;
4555;SDS011;2290;48.674;9.018;2023-04-25T15:35:29;2.50;;;2.00;;
4555;SDS011;2290;48.674;9.018;2023-04-25T15:37:55;2.13;;;1.80;;
4555;SDS011;2290;48.674;9.018;2023-04-25T15:40:20;2.20;;;2.00;;